createdAt,value
2018-10-18T00:01:08.885Z,15.48
2018-10-18T00:03:37.871Z,15.47
2018-10-18T00:06:07.341Z,15.48
2018-10-18T00:08:36.933Z,15.46
2018-10-18T00:11:05.928Z,15.45
2018-10-18T00:13:35.820Z,15.44
2018-10-18T00:16:05.504Z,15.42
2018-10-18T00:18:34.390Z,15.39
2018-10-18T00:21:03.331Z,15.34
2018-10-18T00:23:32.190Z,15.28
2018-10-18T00:27:05.088Z,15.22
2018-10-18T00:29:34.011Z,15.13
2018-10-18T00:32:03.803Z,15.07
2018-10-18T00:34:33.609Z,15.00
2018-10-18T00:37:03.942Z,14.92
2018-10-18T00:39:32.898Z,14.83
2018-10-18T00:42:02.152Z,14.78
2018-10-18T00:44:31.910Z,14.75
2018-10-18T00:47:01.833Z,14.70
2018-10-18T00:49:31.065Z,14.68
2018-10-18T00:54:44.675Z,14.67
2018-10-18T00:57:13.986Z,14.69
2018-10-18T00:59:43.533Z,14.70
2018-10-18T01:02:12.560Z,14.71
2018-10-18T01:04:42.382Z,14.71
2018-10-18T01:07:12.451Z,14.67
2018-10-18T01:09:42.095Z,14.66
2018-10-18T01:12:11.980Z,14.66
2018-10-18T01:14:42.608Z,14.67
2018-10-18T01:17:12.061Z,14.68
2018-10-18T01:19:41.532Z,14.69
2018-10-18T01:22:11.090Z,14.74
2018-10-18T01:27:54.864Z,14.78
2018-10-18T01:30:23.761Z,14.81
2018-10-18T01:32:58.625Z,14.78
2018-10-18T01:35:28.453Z,14.77
2018-10-18T01:37:57.738Z,14.78
2018-10-18T01:40:27.230Z,14.78
2018-10-18T01:42:56.902Z,14.76
2018-10-18T01:45:26.503Z,14.76
2018-10-18T01:47:55.386Z,14.74
2018-10-18T01:50:24.504Z,14.74
2018-10-18T01:52:53.996Z,14.75
2018-10-18T01:55:23.085Z,14.73
2018-10-18T01:57:52.633Z,14.76
2018-10-18T02:00:21.988Z,14.77
2018-10-18T02:02:50.850Z,14.80
2018-10-18T02:05:19.791Z,14.82
2018-10-18T02:07:49.223Z,14.83
2018-10-18T02:10:18.088Z,14.87
2018-10-18T02:12:47.042Z,14.88
2018-10-18T02:15:16.562Z,14.89
2018-10-18T02:17:45.419Z,14.91
2018-10-18T02:20:14.258Z,14.91
2018-10-18T02:22:43.320Z,14.90
2018-10-18T02:25:13.038Z,14.88
2018-10-18T02:27:43.569Z,14.88
2018-10-18T02:30:13.464Z,14.85
2018-10-18T02:32:43.222Z,14.84
2018-10-18T02:35:13.141Z,14.83
2018-10-18T02:37:43.296Z,14.82
2018-10-18T02:40:13.342Z,14.81
2018-10-18T02:42:42.727Z,14.80
2018-10-18T02:45:12.463Z,14.79
2018-10-18T02:47:42.782Z,14.80
2018-10-18T02:50:12.132Z,14.80
2018-10-18T02:52:45.101Z,14.78
2018-10-18T02:55:13.990Z,14.75
2018-10-18T02:57:43.412Z,14.70
2018-10-18T03:00:13.205Z,14.70
2018-10-18T03:02:42.834Z,14.67
2018-10-18T03:05:12.215Z,14.66
2018-10-18T03:07:42.028Z,14.64
2018-10-18T03:10:11.686Z,14.61
2018-10-18T03:12:41.687Z,14.61
2018-10-18T03:15:12.164Z,14.57
2018-10-18T03:17:41.744Z,14.56
2018-10-18T03:20:10.973Z,14.53
2018-10-18T03:22:41.302Z,14.47
2018-10-18T03:25:11.721Z,14.44
2018-10-18T03:27:41.778Z,14.39
2018-10-18T03:30:11.558Z,14.39
2018-10-18T03:32:41.533Z,14.39
2018-10-18T03:35:11.775Z,14.37
2018-10-18T03:37:41.344Z,14.38
2018-10-18T03:40:10.958Z,14.41
2018-10-18T03:42:40.977Z,14.40
2018-10-18T03:45:10.329Z,14.38
2018-10-18T03:47:39.956Z,14.36
2018-10-18T03:50:09.008Z,14.37
2018-10-18T03:52:39.164Z,14.40
2018-10-18T03:55:08.113Z,14.41
2018-10-18T03:57:37.679Z,14.45
2018-10-18T04:00:08.629Z,14.43
2018-10-18T04:02:37.692Z,14.44
2018-10-18T04:05:07.745Z,14.41
2018-10-18T04:07:37.686Z,14.41
2018-10-18T04:10:07.182Z,14.39
2018-10-18T04:12:37.079Z,14.39
2018-10-18T04:15:07.220Z,14.40
2018-10-18T04:17:35.983Z,14.41
2018-10-18T04:20:05.228Z,14.43
2018-10-18T04:22:34.173Z,14.42
2018-10-18T04:25:03.583Z,14.45
2018-10-18T04:27:33.080Z,14.48
2018-10-18T04:30:02.168Z,14.50
2018-10-18T04:32:31.281Z,14.51
2018-10-18T04:35:00.971Z,14.51
2018-10-18T04:37:29.970Z,14.49
2018-10-18T04:39:58.815Z,14.48
2018-10-18T04:42:27.746Z,14.46
2018-10-18T04:44:56.629Z,14.41
2018-10-18T04:47:25.734Z,14.41
2018-10-18T04:49:54.955Z,14.38
2018-10-18T04:52:25.003Z,14.35
2018-10-18T04:55:24.829Z,14.33
2018-10-18T04:57:54.456Z,14.30
2018-10-18T05:00:25.268Z,14.27
2018-10-18T05:02:54.215Z,14.26
2018-10-18T05:05:34.065Z,14.25
2018-10-18T05:08:04.129Z,14.25
2018-10-18T05:10:33.035Z,14.24
2018-10-18T05:13:03.293Z,14.22
2018-10-18T05:15:32.637Z,14.23
2018-10-18T05:18:01.597Z,14.23
2018-10-18T05:20:30.544Z,14.19
2018-10-18T05:23:00.071Z,14.18
2018-10-18T05:25:29.774Z,14.18
2018-10-18T05:28:00.801Z,14.14
2018-10-18T05:30:30.557Z,14.11
2018-10-18T05:33:01.809Z,14.12
2018-10-18T05:35:32.204Z,14.05
2018-10-18T05:38:01.144Z,14.02
2018-10-18T05:40:30.118Z,13.96
2018-10-18T05:42:59.332Z,13.91
2018-10-18T05:45:28.396Z,13.85
2018-10-18T05:47:57.380Z,13.80
2018-10-18T05:50:27.262Z,13.75
2018-10-18T05:52:58.125Z,13.75
2018-10-18T05:55:27.119Z,13.72
2018-10-18T05:57:56.891Z,13.66
2018-10-18T06:00:27.226Z,13.63
2018-10-18T06:02:56.188Z,13.59
2018-10-18T06:05:25.292Z,13.53
2018-10-18T06:07:55.076Z,13.51
2018-10-18T06:10:35.462Z,13.47
2018-10-18T06:13:05.015Z,13.44
2018-10-18T06:15:34.716Z,13.42
2018-10-18T06:18:03.631Z,13.41
2018-10-18T06:20:32.551Z,13.40
2018-10-18T06:23:01.582Z,13.39
2018-10-18T06:25:31.304Z,13.40
2018-10-18T06:28:07.308Z,13.40
2018-10-18T06:30:40.280Z,13.39
2018-10-18T06:33:10.638Z,13.41
2018-10-18T06:35:41.506Z,13.43
2018-10-18T06:38:11.199Z,13.45
2018-10-18T06:40:41.233Z,13.45
2018-10-18T06:43:11.177Z,13.42
2018-10-18T06:45:41.974Z,13.41
2018-10-18T06:48:11.766Z,13.41
2018-10-18T06:50:41.075Z,13.42
2018-10-18T06:53:11.235Z,13.43
2018-10-18T06:55:40.916Z,13.42
2018-10-18T06:58:11.290Z,13.43
2018-10-18T07:00:41.224Z,13.43
2018-10-18T07:03:11.011Z,13.42
2018-10-18T07:05:41.815Z,13.39
2018-10-18T07:08:12.943Z,13.39
2018-10-18T07:10:42.490Z,13.39
2018-10-18T07:13:13.796Z,13.39
2018-10-18T07:15:43.734Z,13.37
2018-10-18T07:18:13.720Z,13.36
2018-10-18T07:20:43.040Z,13.34
2018-10-18T07:23:12.998Z,13.31
2018-10-18T07:25:43.401Z,13.27
2018-10-18T07:28:15.323Z,13.26
2018-10-18T07:30:44.245Z,13.18
2018-10-18T07:33:13.227Z,13.14
2018-10-18T07:35:42.900Z,13.08
2018-10-18T07:38:13.128Z,13.02
2018-10-18T07:40:42.688Z,12.97
2018-10-18T07:43:11.909Z,12.95
2018-10-18T07:45:41.674Z,12.94
2018-10-18T07:48:11.785Z,12.90
2018-10-18T07:50:41.695Z,12.84
2018-10-18T07:53:11.720Z,12.80
2018-10-18T07:55:41.209Z,12.79
2018-10-18T07:58:11.403Z,12.77
2018-10-18T08:00:41.577Z,12.81
2018-10-18T08:03:11.279Z,12.81
2018-10-18T08:05:40.559Z,12.81
2018-10-18T08:08:11.466Z,12.84
2018-10-18T08:10:40.722Z,12.94
2018-10-18T08:13:11.443Z,13.01
2018-10-18T08:15:41.664Z,13.02
2018-10-18T08:18:11.946Z,13.04
2018-10-18T08:20:41.275Z,13.16
2018-10-18T08:23:11.847Z,13.31
2018-10-18T08:25:42.540Z,13.42
2018-10-18T08:28:14.011Z,13.43
2018-10-18T08:30:43.112Z,13.42
2018-10-18T08:33:13.306Z,13.41
2018-10-18T08:35:43.024Z,13.45
2018-10-18T08:38:13.463Z,13.47
2018-10-18T08:40:42.398Z,13.57
2018-10-18T08:43:11.973Z,13.64
2018-10-18T08:45:41.736Z,13.68
2018-10-18T08:48:14.088Z,13.67
2018-10-18T08:50:43.195Z,13.62
2018-10-18T08:53:14.848Z,13.68
2018-10-18T08:55:43.794Z,13.70
2018-10-18T08:58:14.991Z,13.77
2018-10-18T09:00:44.542Z,13.74
2018-10-18T09:03:13.424Z,13.63
2018-10-18T09:05:42.648Z,13.51
2018-10-18T09:08:16.348Z,13.35
2018-10-18T09:10:45.210Z,13.19
2018-10-18T09:13:15.011Z,13.10
2018-10-18T09:15:44.392Z,13.08
2018-10-18T09:18:13.598Z,13.19
2018-10-18T09:20:42.886Z,13.33
2018-10-18T09:23:12.293Z,13.44
2018-10-18T09:25:42.058Z,13.57
2018-10-18T09:28:12.497Z,13.72
2018-10-18T09:30:41.953Z,13.84
2018-10-18T09:33:11.587Z,13.97
2018-10-18T09:35:41.818Z,14.07
2018-10-18T09:38:12.265Z,14.17
2018-10-18T09:40:41.609Z,14.18
2018-10-18T09:43:11.107Z,14.29
2018-10-18T09:45:40.422Z,14.40
2018-10-18T09:48:10.636Z,14.41
2018-10-18T09:50:39.844Z,14.39
2018-10-18T09:55:52.667Z,14.30
2018-10-18T09:58:22.568Z,14.16
2018-10-18T10:00:57.874Z,14.21
2018-10-18T10:03:26.831Z,14.26
2018-10-18T10:05:55.716Z,14.23
2018-10-18T10:08:25.805Z,14.23
2018-10-18T10:10:54.618Z,14.25
2018-10-18T10:13:24.478Z,14.23
2018-10-18T10:15:54.295Z,14.23
2018-10-18T10:18:24.487Z,14.20
2018-10-18T10:20:53.284Z,14.19
2018-10-18T10:23:22.378Z,14.17
2018-10-18T10:25:51.706Z,14.26
2018-10-18T10:28:22.008Z,14.27
2018-10-18T10:30:50.857Z,14.31
2018-10-18T10:33:19.892Z,14.27
2018-10-18T10:35:49.635Z,14.30
2018-10-18T10:38:18.952Z,14.35
2018-10-18T10:40:47.945Z,14.39
2018-10-18T10:43:16.935Z,14.44
2018-10-18T10:45:45.947Z,14.43
2018-10-18T10:48:15.586Z,14.42
2018-10-18T10:50:44.631Z,14.46
2018-10-18T10:53:14.147Z,14.42
2018-10-18T10:55:43.128Z,14.41
2018-10-18T10:58:14.058Z,14.44
2018-10-18T11:01:16.803Z,14.42
2018-10-18T11:03:45.935Z,14.43
2018-10-18T11:06:15.439Z,14.42
2018-10-18T11:08:44.866Z,14.40
2018-10-18T11:11:14.694Z,14.37
2018-10-18T11:13:44.230Z,14.33
2018-10-18T11:16:15.341Z,14.36
2018-10-18T11:18:44.293Z,14.40
2018-10-18T11:21:14.630Z,14.38
2018-10-18T11:23:43.511Z,14.38
2018-10-18T11:26:13.383Z,14.41
2018-10-18T11:28:42.686Z,14.39
2018-10-18T11:31:12.503Z,14.37
2018-10-18T11:33:42.396Z,14.40
2018-10-18T11:36:12.442Z,14.47
2018-10-18T11:38:42.042Z,14.47
2018-10-18T11:41:11.163Z,14.43
2018-10-18T11:43:40.619Z,14.42
2018-10-18T11:46:10.000Z,14.44
2018-10-18T11:48:39.634Z,14.43
2018-10-18T11:51:09.735Z,14.43
2018-10-18T11:53:38.849Z,14.44
2018-10-18T11:56:07.763Z,14.43
2018-10-18T11:58:37.463Z,14.41
2018-10-18T12:01:06.763Z,14.44
2018-10-18T12:03:35.628Z,14.41
2018-10-18T12:06:04.479Z,14.39
2018-10-18T12:08:35.041Z,14.37
2018-10-18T12:11:03.967Z,14.40
2018-10-18T12:13:34.704Z,14.37
2018-10-18T12:16:04.061Z,14.39
2018-10-18T12:18:33.326Z,14.42
2018-10-18T12:21:02.287Z,14.43
2018-10-18T12:23:31.336Z,14.40
2018-10-18T12:26:01.624Z,14.39
2018-10-18T12:28:32.225Z,14.35
2018-10-18T12:31:01.102Z,14.36
2018-10-18T12:33:30.677Z,14.32
2018-10-18T12:35:59.575Z,14.27
2018-10-18T12:38:28.532Z,14.27
2018-10-18T12:40:57.593Z,14.22
2018-10-18T12:43:26.394Z,14.23
2018-10-18T12:45:55.342Z,14.30
2018-10-18T12:48:24.448Z,14.28
2018-10-18T12:50:54.083Z,14.28
2018-10-18T12:53:23.493Z,14.31
2018-10-18T12:55:52.432Z,14.34
2018-10-18T12:58:22.171Z,14.34
2018-10-18T13:00:51.662Z,14.30
2018-10-18T13:03:20.549Z,14.32
2018-10-18T13:05:49.508Z,14.38
2018-10-18T13:08:19.610Z,14.42
2018-10-18T13:10:48.506Z,14.42
2018-10-18T13:13:18.185Z,14.36
2018-10-18T13:15:47.726Z,14.36
2018-10-18T13:18:16.690Z,14.28
2018-10-18T13:20:45.621Z,14.21
2018-10-18T13:23:14.941Z,14.17
2018-10-18T13:25:44.460Z,14.16
2018-10-18T13:28:13.967Z,14.09
2018-10-18T13:30:42.862Z,14.00
2018-10-18T13:33:12.595Z,13.93
2018-10-18T13:35:43.108Z,13.91
2018-10-18T13:38:12.638Z,13.89
2018-10-18T13:40:42.721Z,13.91
2018-10-18T13:43:12.666Z,13.93
2018-10-18T13:45:45.958Z,13.93
2018-10-18T13:48:15.667Z,13.89
2018-10-18T13:50:44.655Z,13.84
2018-10-18T13:53:14.059Z,13.82
2018-10-18T13:55:43.141Z,13.80
2018-10-18T13:58:14.035Z,13.80
2018-10-18T14:00:43.843Z,13.82
2018-10-18T14:03:13.901Z,13.78
2018-10-18T14:05:43.130Z,13.75
2018-10-18T14:08:13.811Z,13.72
2018-10-18T14:10:43.696Z,13.68
2018-10-18T14:13:13.473Z,13.64
2018-10-18T14:15:43.349Z,13.56
2018-10-18T14:18:13.091Z,13.50
2018-10-18T14:20:43.470Z,13.49
2018-10-18T14:23:13.122Z,13.46
2018-10-18T14:25:43.148Z,13.44
2018-10-18T14:28:12.858Z,13.40
2018-10-18T14:30:42.428Z,13.35
2018-10-18T14:33:12.335Z,13.31
2018-10-18T14:35:42.630Z,13.29
2018-10-18T14:38:12.407Z,13.24
2018-10-18T14:40:41.899Z,13.18
2018-10-18T14:43:11.682Z,13.13
2018-10-18T14:45:41.188Z,13.12
2018-10-18T14:48:10.868Z,13.08
2018-10-18T14:50:40.297Z,13.04
2018-10-18T14:53:10.697Z,12.97
2018-10-18T14:55:40.532Z,12.91
2018-10-18T14:58:11.495Z,12.88
2018-10-18T15:00:41.648Z,12.84
2018-10-18T15:03:12.826Z,12.78
2018-10-18T15:05:42.875Z,12.70
2018-10-18T15:08:13.197Z,12.63
2018-10-18T15:10:42.792Z,12.55
2018-10-18T15:13:13.874Z,12.48
2018-10-18T15:15:43.699Z,12.43
2018-10-18T15:18:12.898Z,12.34
2018-10-18T15:20:43.120Z,12.31
2018-10-18T15:23:12.853Z,12.23
2018-10-18T15:25:43.255Z,12.14
2018-10-18T15:28:13.183Z,12.07
2018-10-18T15:30:42.411Z,11.99
2018-10-18T15:33:12.626Z,11.91
2018-10-18T15:35:42.802Z,11.84
2018-10-18T15:38:13.219Z,11.76
2018-10-18T15:40:44.608Z,11.70
2018-10-18T15:43:14.453Z,11.62
2018-10-18T15:45:43.646Z,11.58
2018-10-18T15:48:13.067Z,11.48
2018-10-18T15:50:42.349Z,11.38
2018-10-18T15:53:13.814Z,11.33
2018-10-18T15:55:42.751Z,11.25
2018-10-18T15:58:12.889Z,11.17
2018-10-18T16:00:42.712Z,11.11
2018-10-18T16:03:12.591Z,11.05
2018-10-18T16:05:43.256Z,10.99
2018-10-18T16:08:13.307Z,10.93
2018-10-18T16:10:42.494Z,10.85
2018-10-18T16:14:14.899Z,10.79
2018-10-18T16:16:44.402Z,10.69
2018-10-18T16:19:13.314Z,10.64
2018-10-18T16:21:42.290Z,10.56
2018-10-18T16:24:12.680Z,10.49
2018-10-18T16:26:42.283Z,10.44
2018-10-18T16:29:12.409Z,10.40
2018-10-18T16:31:41.815Z,10.37
2018-10-18T16:34:12.059Z,10.32
2018-10-18T16:36:41.949Z,10.30
2018-10-18T16:39:13.389Z,10.29
2018-10-18T16:41:42.733Z,10.28
2018-10-18T16:44:12.053Z,10.27
2018-10-18T16:46:41.535Z,10.27
2018-10-18T16:49:11.055Z,10.25
2018-10-18T16:51:41.667Z,10.23
2018-10-18T16:54:11.552Z,10.20
2018-10-18T16:56:41.761Z,10.15
2018-10-18T16:59:12.298Z,10.09
2018-10-18T17:01:42.447Z,10.01
2018-10-18T17:04:12.403Z,9.94
2018-10-18T17:06:42.219Z,9.92
2018-10-18T17:09:13.201Z,9.86
2018-10-18T17:11:42.122Z,9.80
2018-10-18T17:14:12.335Z,9.75
2018-10-18T17:16:43.135Z,9.66
2018-10-18T17:19:12.088Z,9.59
2018-10-18T17:21:41.743Z,9.52
2018-10-18T17:24:14.071Z,9.47
2018-10-18T17:26:43.000Z,9.43
2018-10-18T17:29:12.931Z,9.37
2018-10-18T17:31:43.819Z,9.28
2018-10-18T17:34:13.489Z,9.22
2018-10-18T17:36:42.238Z,9.14
2018-10-18T17:39:11.964Z,9.08
2018-10-18T17:41:41.603Z,9.02
2018-10-18T17:44:11.386Z,8.97
2018-10-18T17:46:40.693Z,8.94
2018-10-18T17:49:09.761Z,8.89
2018-10-18T17:51:39.792Z,8.85
2018-10-18T17:54:08.632Z,8.81
2018-10-18T17:56:40.006Z,8.78
2018-10-18T17:59:09.918Z,8.76
2018-10-18T18:01:39.954Z,8.73
2018-10-18T18:04:09.300Z,8.70
2018-10-18T18:06:40.199Z,8.69
2018-10-18T18:09:11.408Z,8.64
2018-10-18T18:15:26.026Z,8.56
2018-10-18T18:17:55.015Z,8.50
2018-10-18T18:20:24.123Z,8.41
2018-10-18T18:22:53.094Z,8.33
2018-10-18T18:25:22.447Z,8.27
2018-10-18T18:27:51.868Z,8.21
2018-10-18T18:30:20.836Z,8.17
2018-10-18T18:32:49.761Z,8.10
2018-10-18T18:35:19.532Z,8.03
2018-10-18T18:37:48.441Z,8.00
2018-10-18T18:40:17.423Z,7.98
2018-10-18T18:42:46.367Z,7.97
2018-10-18T18:45:20.417Z,7.98
2018-10-18T18:47:49.585Z,7.99
2018-10-18T18:50:18.942Z,8.02
2018-10-18T18:52:48.717Z,8.00
2018-10-18T18:55:17.624Z,7.99
2018-10-18T18:57:46.985Z,7.97
2018-10-18T19:00:16.999Z,7.94
2018-10-18T19:02:45.872Z,7.93
2018-10-18T19:05:14.869Z,7.91
2018-10-18T19:07:44.930Z,7.89
2018-10-18T19:10:13.834Z,7.85
2018-10-18T19:12:42.777Z,7.84
2018-10-18T19:15:12.485Z,7.83
2018-10-18T19:17:42.513Z,7.83
2018-10-18T19:20:11.727Z,7.81
2018-10-18T19:22:41.108Z,7.80
2018-10-18T19:25:11.415Z,7.79
2018-10-18T19:27:41.663Z,7.78
2018-10-18T19:30:12.280Z,7.75
2018-10-18T19:32:41.774Z,7.67
2018-10-18T19:35:11.623Z,7.63
2018-10-18T19:37:40.779Z,7.57
2018-10-18T19:40:10.299Z,7.55
2018-10-18T19:42:39.636Z,7.51
2018-10-18T19:45:10.592Z,7.45
2018-10-18T19:47:40.151Z,7.41
2018-10-18T19:50:10.294Z,7.35
2018-10-18T19:52:40.562Z,7.31
2018-10-18T19:55:11.559Z,7.28
2018-10-18T19:57:41.138Z,7.25
2018-10-18T20:00:11.613Z,7.20
2018-10-18T20:02:41.021Z,7.13
2018-10-18T20:05:10.442Z,7.06
2018-10-18T20:08:42.235Z,6.99
2018-10-18T20:11:12.110Z,6.92
2018-10-18T20:13:42.637Z,6.83
2018-10-18T20:16:13.135Z,6.70
2018-10-18T20:18:42.397Z,6.70
2018-10-18T20:21:12.381Z,6.63
2018-10-18T20:23:42.215Z,6.54
2018-10-18T20:26:12.561Z,6.44
2018-10-18T20:28:43.012Z,6.47
2018-10-18T20:31:13.066Z,6.35
2018-10-18T20:33:42.868Z,6.33
2018-10-18T20:36:12.767Z,6.28
2018-10-18T20:38:41.816Z,6.20
2018-10-18T20:41:12.178Z,6.13
2018-10-18T20:43:41.933Z,6.02
2018-10-18T20:46:11.021Z,5.96
2018-10-18T20:48:40.163Z,5.88
2018-10-18T20:54:02.046Z,5.82
2018-10-18T20:56:31.501Z,5.76
2018-10-18T20:59:01.106Z,5.73
2018-10-18T21:01:30.534Z,5.69
2018-10-18T21:03:59.568Z,5.63
2018-10-18T21:06:28.760Z,5.58
2018-10-18T21:08:58.917Z,5.51
2018-10-18T21:11:28.750Z,5.48
2018-10-18T21:14:00.308Z,5.44
2018-10-18T21:16:31.757Z,5.37
2018-10-18T21:19:01.377Z,5.38
2018-10-18T21:21:30.444Z,5.36
2018-10-18T21:23:59.445Z,5.33
2018-10-18T21:26:29.050Z,5.32
2018-10-18T21:28:58.512Z,5.29
2018-10-18T21:31:27.553Z,5.24
2018-10-18T21:33:57.134Z,5.17
2018-10-18T21:36:25.967Z,5.11
2018-10-18T21:38:55.087Z,5.06
2018-10-18T21:41:24.049Z,5.01
2018-10-18T21:43:53.384Z,4.95
2018-10-18T21:46:22.249Z,4.93
2018-10-18T21:48:51.249Z,4.88
2018-10-18T21:51:21.173Z,4.83
2018-10-18T21:53:50.089Z,4.81
2018-10-18T21:56:18.935Z,4.80
2018-10-18T21:58:48.703Z,4.80
2018-10-18T22:01:18.263Z,4.82
2018-10-18T22:03:47.182Z,4.85
2018-10-18T22:06:16.106Z,4.87
2018-10-18T22:08:45.001Z,4.87
2018-10-18T22:11:14.106Z,4.87
2018-10-18T22:13:43.628Z,4.88
2018-10-18T22:16:13.624Z,4.84
2018-10-18T22:18:42.557Z,4.84
2018-10-18T22:21:12.566Z,4.81
2018-10-18T22:23:41.926Z,4.80
2018-10-18T22:26:12.908Z,4.79
2018-10-18T22:28:42.707Z,4.77
2018-10-18T22:31:11.887Z,4.79
2018-10-18T22:33:41.852Z,4.79
2018-10-18T22:36:11.871Z,4.72
2018-10-18T22:38:41.737Z,4.66
2018-10-18T22:41:13.627Z,4.63
2018-10-18T22:43:43.207Z,4.59
2018-10-18T22:46:12.392Z,4.54
2018-10-18T22:48:42.124Z,4.53
2018-10-18T22:51:14.407Z,4.47
2018-10-18T22:53:43.240Z,4.41
2018-10-18T22:56:12.095Z,4.39
2018-10-18T22:58:42.055Z,4.38
2018-10-18T23:01:12.242Z,4.35
2018-10-18T23:03:42.049Z,4.35
2018-10-18T23:06:11.864Z,4.32
2018-10-18T23:08:41.507Z,4.29
2018-10-18T23:11:10.626Z,4.25
2018-10-18T23:13:40.298Z,4.22
2018-10-18T23:16:09.738Z,4.20
2018-10-18T23:18:38.554Z,4.16
2018-10-18T23:21:07.449Z,4.13
2018-10-18T23:23:36.359Z,4.11
2018-10-18T23:26:05.687Z,4.08
2018-10-18T23:28:35.266Z,4.04
2018-10-18T23:31:04.197Z,4.02
2018-10-18T23:33:34.247Z,3.96
2018-10-18T23:36:03.044Z,3.85
2018-10-18T23:38:31.907Z,3.84
2018-10-18T23:41:01.320Z,3.81
2018-10-18T23:43:30.677Z,3.78
2018-10-18T23:46:00.092Z,3.65
2018-10-18T23:48:28.931Z,3.63
2018-10-18T23:50:57.834Z,3.62
2018-10-18T23:53:27.116Z,3.58
2018-10-18T23:55:55.935Z,3.54
2018-10-18T23:58:25.188Z,3.51
